createdAt,value
2019-02-04T00:00:29.676Z,6.93
2019-02-04T00:02:58.524Z,5.53
2019-02-04T00:05:27.108Z,6.87
2019-02-04T00:07:55.658Z,5.50
2019-02-04T00:10:24.252Z,6.43
2019-02-04T00:12:52.724Z,6.77
2019-02-04T00:15:21.718Z,6.23
2019-02-04T00:17:50.362Z,6.53
2019-02-04T00:20:18.987Z,6.30
2019-02-04T00:22:47.516Z,5.37
2019-02-04T00:25:16.188Z,6.43
2019-02-04T00:27:44.690Z,6.23
2019-02-04T00:30:16.764Z,5.20
2019-02-04T00:32:45.403Z,6.33
2019-02-04T00:35:13.988Z,6.20
2019-02-04T00:37:42.553Z,6.50
2019-02-04T00:40:22.355Z,6.13
2019-02-04T00:42:51.116Z,6.33
2019-02-04T00:45:19.662Z,5.53
2019-02-04T00:47:48.226Z,5.00
2019-02-04T00:50:19.021Z,6.00
2019-02-04T00:52:47.620Z,5.77
2019-02-04T00:55:16.100Z,5.93
2019-02-04T00:57:44.986Z,5.40
2019-02-04T01:00:28.170Z,4.73
2019-02-04T01:02:56.835Z,5.37
2019-02-04T01:05:25.324Z,6.23
2019-02-04T01:07:53.813Z,5.93
2019-02-04T01:10:29.770Z,5.23
2019-02-04T01:12:58.763Z,5.33
2019-02-04T01:15:27.625Z,5.27
2019-02-04T01:17:56.155Z,5.63
2019-02-04T01:20:29.474Z,6.00
2019-02-04T01:22:58.337Z,4.50
2019-02-04T01:25:26.891Z,6.50
2019-02-04T01:27:55.523Z,5.13
2019-02-04T01:30:24.665Z,5.30
2019-02-04T01:32:53.236Z,5.83
2019-02-04T01:35:21.763Z,6.03
2019-02-04T01:37:50.331Z,6.27
2019-02-04T01:40:26.490Z,6.13
2019-02-04T01:42:55.747Z,5.87
2019-02-04T01:45:24.907Z,5.73
2019-02-04T01:47:53.554Z,5.27
2019-02-04T01:50:23.018Z,6.00
2019-02-04T01:52:51.675Z,5.60
2019-02-04T01:55:20.283Z,6.80
2019-02-04T01:57:51.806Z,6.93
2019-02-04T02:00:31.931Z,6.73
2019-02-04T02:03:00.459Z,5.73
2019-02-04T02:05:28.899Z,5.87
2019-02-04T02:07:57.516Z,6.07
2019-02-04T02:10:26.851Z,6.20
2019-02-04T02:12:55.691Z,5.83
2019-02-04T02:15:24.180Z,6.03
2019-02-04T02:17:52.754Z,6.87
2019-02-04T02:20:23.507Z,6.17
2019-02-04T02:22:51.999Z,6.13
2019-02-04T02:25:20.565Z,6.40
2019-02-04T02:27:49.138Z,7.07
2019-02-04T02:30:28.860Z,7.23
2019-02-04T02:32:57.348Z,5.80
2019-02-04T02:35:25.828Z,6.93
2019-02-04T02:37:54.307Z,5.33
2019-02-04T02:40:25.248Z,6.13
2019-02-04T02:42:53.685Z,6.57
2019-02-04T02:45:22.222Z,7.13
2019-02-04T02:47:50.626Z,6.70
2019-02-04T02:50:19.308Z,6.60
2019-02-04T02:52:47.957Z,6.43
2019-02-04T02:55:18.212Z,6.43
2019-02-04T02:57:46.779Z,7.03
2019-02-04T03:00:26.908Z,6.80
2019-02-04T03:02:55.428Z,7.17
2019-02-04T03:05:24.067Z,7.10
2019-02-04T03:07:52.702Z,8.27
2019-02-04T03:10:27.063Z,6.60
2019-02-04T03:12:55.835Z,6.73
2019-02-04T03:15:24.489Z,7.37
2019-02-04T03:17:52.977Z,8.07
2019-02-04T03:20:21.670Z,7.27
2019-02-04T03:22:50.334Z,6.93
2019-02-04T03:25:18.900Z,6.67
2019-02-04T03:27:47.532Z,7.30
2019-02-04T03:30:19.254Z,7.47
2019-02-04T03:32:47.796Z,7.23
2019-02-04T03:35:16.308Z,8.67
2019-02-04T03:37:44.804Z,8.47
2019-02-04T03:40:16.178Z,8.73
2019-02-04T03:42:44.662Z,8.57
2019-02-04T03:45:13.645Z,7.97
2019-02-04T03:47:42.150Z,8.97
2019-02-04T03:50:12.458Z,8.77
2019-02-04T03:52:40.980Z,7.80
2019-02-04T03:55:12.235Z,9.27
2019-02-04T03:57:40.787Z,8.23
2019-02-04T04:00:21.227Z,8.57
2019-02-04T04:02:49.998Z,8.40
2019-02-04T04:05:18.499Z,11.03
2019-02-04T04:07:46.955Z,9.33
2019-02-04T04:10:15.437Z,10.97
2019-02-04T04:12:43.941Z,9.80
2019-02-04T04:15:14.075Z,10.17
2019-02-04T04:17:42.645Z,9.67
2019-02-04T04:20:13.747Z,10.63
2019-02-04T04:22:42.390Z,10.87
2019-02-04T04:25:13.748Z,11.10
2019-02-04T04:27:42.334Z,10.10
2019-02-04T04:30:19.156Z,9.57
2019-02-04T04:32:47.685Z,10.03
2019-02-04T04:35:16.411Z,11.73
2019-02-04T04:37:45.044Z,11.10
2019-02-04T04:40:15.355Z,10.33
2019-02-04T04:42:43.924Z,10.70
2019-02-04T04:45:15.757Z,9.83
2019-02-04T04:47:44.188Z,11.50
2019-02-04T04:50:12.858Z,9.73
2019-02-04T04:52:41.547Z,10.93
2019-02-04T04:55:15.764Z,9.67
2019-02-04T04:57:44.389Z,12.07
2019-02-04T05:00:15.931Z,12.23
2019-02-04T05:02:44.922Z,10.63
2019-02-04T05:05:14.379Z,11.73
2019-02-04T05:07:43.020Z,12.63
2019-02-04T05:10:17.013Z,14.10
2019-02-04T05:12:45.546Z,20.30
2019-02-04T05:15:16.627Z,16.03
2019-02-04T05:17:45.291Z,12.90
2019-02-04T05:20:16.012Z,11.57
2019-02-04T05:22:44.571Z,12.20
2019-02-04T05:25:13.703Z,11.03
2019-02-04T05:27:42.299Z,11.63
2019-02-04T05:30:13.660Z,11.43
2019-02-04T05:32:42.330Z,11.47
2019-02-04T05:35:10.876Z,11.23
2019-02-04T05:37:39.530Z,13.37
2019-02-04T05:40:10.853Z,11.60
2019-02-04T05:42:39.516Z,12.40
2019-02-04T05:45:10.764Z,11.67
2019-02-04T05:47:39.196Z,11.00
2019-02-04T05:50:10.796Z,10.87
2019-02-04T05:52:39.394Z,11.30
2019-02-04T05:55:08.436Z,9.60
2019-02-04T05:57:37.076Z,11.67
2019-02-04T06:00:09.012Z,12.33
2019-02-04T06:02:37.498Z,12.67
2019-02-04T06:05:08.524Z,11.17
2019-02-04T06:07:37.055Z,11.97
2019-02-04T06:10:08.132Z,12.20
2019-02-04T06:12:36.923Z,11.47
2019-02-04T06:15:11.361Z,13.17
2019-02-04T06:17:39.949Z,11.10
2019-02-04T06:20:11.722Z,9.60
2019-02-04T06:22:40.301Z,11.97
2019-02-04T06:25:09.421Z,11.37
2019-02-04T06:27:38.060Z,10.47
2019-02-04T06:30:10.079Z,10.67
2019-02-04T06:32:38.623Z,9.90
2019-02-04T06:35:07.192Z,10.87
2019-02-04T06:37:35.739Z,11.43
2019-02-04T06:40:07.236Z,9.93
2019-02-04T06:42:35.735Z,10.47
2019-02-04T06:45:06.793Z,11.03
2019-02-04T06:47:35.355Z,10.27
2019-02-04T06:50:05.804Z,11.77
2019-02-04T06:52:34.308Z,11.47
2019-02-04T06:55:02.914Z,11.27
2019-02-04T06:57:31.435Z,10.63
2019-02-04T06:59:59.852Z,11.20
2019-02-04T07:02:28.453Z,10.83
2019-02-04T07:04:57.097Z,10.87
2019-02-04T07:07:25.732Z,9.47
2019-02-04T07:09:54.668Z,9.57
2019-02-04T07:12:23.158Z,9.43
2019-02-04T07:14:51.596Z,10.00
2019-02-04T07:17:20.212Z,11.20
2019-02-04T07:19:48.731Z,10.50
2019-02-04T07:22:17.331Z,13.17
2019-02-04T07:24:46.050Z,10.63
2019-02-04T07:27:14.636Z,11.60
2019-02-04T07:29:43.141Z,9.97
2019-02-04T07:32:11.802Z,9.97
2019-02-04T07:34:40.356Z,9.90
2019-02-04T07:37:08.860Z,11.20
2019-02-04T07:39:37.499Z,9.93
2019-02-04T07:42:06.554Z,11.10
2019-02-04T07:44:35.156Z,11.50
2019-02-04T07:47:03.819Z,10.40
2019-02-04T07:49:35.296Z,11.13
2019-02-04T07:52:02.626Z,11.33
2019-02-04T07:54:31.175Z,11.33
2019-02-04T07:57:00.196Z,10.77
2019-02-04T07:59:28.760Z,11.97
2019-02-04T08:01:57.401Z,11.83
2019-02-04T08:04:25.995Z,12.13
2019-02-04T08:06:54.635Z,12.10
2019-02-04T08:09:23.211Z,10.27
2019-02-04T08:11:52.259Z,11.13
2019-02-04T08:14:20.756Z,13.17
2019-02-04T08:16:49.388Z,11.33
2019-02-04T08:19:17.973Z,10.87
2019-02-04T08:21:46.538Z,11.93
2019-02-04T08:24:15.236Z,12.13
2019-02-04T08:26:43.820Z,13.33
2019-02-04T08:29:12.329Z,12.77
2019-02-04T08:31:41.017Z,12.27
2019-02-04T08:34:09.531Z,12.80
2019-02-04T08:36:44.328Z,13.03
2019-02-04T08:39:08.500Z,10.27
2019-02-04T08:41:37.083Z,11.20
2019-02-04T08:44:05.900Z,11.60
2019-02-04T08:46:34.451Z,10.37
2019-02-04T08:49:03.044Z,12.83
2019-02-04T08:51:31.636Z,11.20
2019-02-04T08:54:00.186Z,11.30
2019-02-04T08:56:28.804Z,12.27
2019-02-04T08:58:57.373Z,11.17
2019-02-04T09:01:26.115Z,9.80
2019-02-04T09:03:54.781Z,11.17
2019-02-04T09:06:23.373Z,11.87
2019-02-04T09:08:52.003Z,10.23
2019-02-04T09:11:20.676Z,11.90
2019-02-04T09:13:49.194Z,13.30
2019-02-04T09:16:18.276Z,12.60
2019-02-04T09:18:46.859Z,11.40
2019-02-04T09:21:15.382Z,12.33
2019-02-04T09:23:44.114Z,12.20
2019-02-04T09:26:12.579Z,12.47
2019-02-04T09:28:41.164Z,11.97
2019-02-04T09:31:09.884Z,14.00
2019-02-04T09:33:38.625Z,13.07
2019-02-04T09:36:07.219Z,11.67
2019-02-04T09:38:35.945Z,13.93
2019-02-04T09:41:04.523Z,12.57
2019-02-04T09:43:33.178Z,12.80
2019-02-04T09:46:01.763Z,12.30
2019-02-04T09:48:30.723Z,12.33
2019-02-04T09:50:59.393Z,12.40
2019-02-04T09:53:28.098Z,13.40
2019-02-04T09:55:57.061Z,14.47
2019-02-04T09:58:25.835Z,12.03
2019-02-04T10:00:54.539Z,13.70
2019-02-04T10:03:23.105Z,12.23
2019-02-04T10:05:51.699Z,12.13
2019-02-04T10:08:20.340Z,11.67
2019-02-04T10:10:48.905Z,12.83
2019-02-04T10:13:17.484Z,13.10
2019-02-04T10:15:46.299Z,12.53
2019-02-04T10:18:15.077Z,11.10
2019-02-04T10:20:43.810Z,11.43
2019-02-04T10:23:12.517Z,11.57
2019-02-04T10:25:42.977Z,10.27
2019-02-04T10:28:13.061Z,13.03
2019-02-04T10:30:41.947Z,11.30
2019-02-04T10:33:10.556Z,12.83
2019-02-04T10:35:39.107Z,10.93
2019-02-04T10:38:07.754Z,11.47
2019-02-04T10:40:36.381Z,12.53
2019-02-04T10:43:05.124Z,12.30
2019-02-04T10:45:33.961Z,10.70
2019-02-04T10:48:02.682Z,11.63
2019-02-04T10:50:45.840Z,10.57
2019-02-04T10:53:07.853Z,10.57
2019-02-04T10:55:36.533Z,12.40
2019-02-04T10:58:07.476Z,10.60
2019-02-04T11:00:36.293Z,10.73
2019-02-04T11:03:05.532Z,11.67
2019-02-04T11:05:39.826Z,10.73
2019-02-04T11:08:10.284Z,10.00
2019-02-04T11:10:38.889Z,11.70
2019-02-04T11:13:09.691Z,12.07
2019-02-04T11:15:38.359Z,10.10
2019-02-04T11:18:07.040Z,10.30
2019-02-04T11:20:35.938Z,9.90
2019-02-04T11:23:05.452Z,10.33
2019-02-04T11:25:34.131Z,10.70
2019-02-04T11:28:02.634Z,9.27
2019-02-04T11:30:46.404Z,8.87
2019-02-04T11:33:15.085Z,11.43
2019-02-04T11:35:43.668Z,9.87
2019-02-04T11:38:12.180Z,11.93
2019-02-04T11:40:41.483Z,11.33
2019-02-04T11:43:10.628Z,10.53
2019-02-04T11:45:39.214Z,12.10
2019-02-04T11:48:10.342Z,10.80
2019-02-04T11:50:38.957Z,11.80
2019-02-04T11:53:07.549Z,15.23
2019-02-04T11:55:36.551Z,11.87
2019-02-04T11:58:07.685Z,14.07
2019-02-04T12:00:35.956Z,14.33
2019-02-04T12:03:06.948Z,14.13
2019-02-04T12:05:35.485Z,12.63
2019-02-04T12:08:04.100Z,14.17
2019-02-04T12:10:41.108Z,13.33
2019-02-04T12:13:10.802Z,12.77
2019-02-04T12:15:39.380Z,13.90
2019-02-04T12:18:08.080Z,14.93
2019-02-04T12:20:39.712Z,13.50
2019-02-04T12:23:06.866Z,15.80
2019-02-04T12:25:36.084Z,12.77
2019-02-04T12:28:04.687Z,16.27
2019-02-04T12:30:38.732Z,16.93
2019-02-04T12:33:09.245Z,16.00
2019-02-04T12:35:37.772Z,15.20
2019-02-04T12:38:06.259Z,15.73
2019-02-04T12:40:35.403Z,13.80
2019-02-04T12:43:03.956Z,18.30
2019-02-04T12:45:37.379Z,16.63
2019-02-04T12:48:06.160Z,19.83
2019-02-04T12:50:34.786Z,16.53
2019-02-04T12:53:03.284Z,17.97
2019-02-04T12:55:33.220Z,15.23
2019-02-04T12:58:01.876Z,17.20
2019-02-04T13:00:31.419Z,17.07
2019-02-04T13:03:00.060Z,15.63
2019-02-04T13:05:31.318Z,14.67
2019-02-04T13:08:00.007Z,13.63
2019-02-04T13:10:28.651Z,16.17
2019-02-04T13:12:57.278Z,14.63
2019-02-04T13:15:26.108Z,14.10
2019-02-04T13:17:54.724Z,13.37
2019-02-04T13:20:23.653Z,14.23
2019-02-04T13:22:52.333Z,11.63
2019-02-04T13:25:23.352Z,12.10
2019-02-04T13:27:51.993Z,9.97
2019-02-04T13:30:28.650Z,14.47
2019-02-04T13:32:57.147Z,11.27
2019-02-04T13:35:25.812Z,13.07
2019-02-04T13:37:54.868Z,11.23
2019-02-04T13:40:28.175Z,11.13
2019-02-04T13:42:56.747Z,10.30
2019-02-04T13:45:25.467Z,10.67
2019-02-04T13:47:54.332Z,9.53
2019-02-04T13:50:23.412Z,10.60
2019-02-04T13:52:52.539Z,6.57
2019-02-04T13:55:35.292Z,7.93
2019-02-04T13:58:04.003Z,7.70
2019-02-04T14:00:32.642Z,7.33
2019-02-04T14:03:01.219Z,7.27
2019-02-04T14:05:31.795Z,7.37
2019-02-04T14:08:00.715Z,8.23
2019-02-04T14:10:40.741Z,7.10
2019-02-04T14:13:09.251Z,7.20
2019-02-04T14:15:38.828Z,7.03
2019-02-04T14:18:08.116Z,7.87
2019-02-04T14:20:36.747Z,5.73
2019-02-04T14:23:05.322Z,7.60
2019-02-04T14:25:33.956Z,6.90
2019-02-04T14:28:03.661Z,6.93
2019-02-04T14:30:35.244Z,6.87
2019-02-04T14:33:03.893Z,5.67
2019-02-04T14:35:32.516Z,7.27
2019-02-04T14:38:01.100Z,8.20
2019-02-04T14:40:29.630Z,7.47
2019-02-04T14:43:01.499Z,7.73
2019-02-04T14:45:33.260Z,7.60
2019-02-04T14:48:14.158Z,7.90
2019-02-04T14:51:03.843Z,7.43
2019-02-04T14:53:58.354Z,8.30
2019-02-04T14:56:30.312Z,7.77
2019-02-04T14:59:05.220Z,8.20
2019-02-04T15:02:02.565Z,9.00
2019-02-04T15:04:55.394Z,8.80
2019-02-04T15:07:52.757Z,9.77
2019-02-04T15:10:33.523Z,7.17
2019-02-04T15:13:38.748Z,9.77
2019-02-04T15:16:13.074Z,8.13
2019-02-04T15:19:03.164Z,9.40
2019-02-04T15:21:52.467Z,8.77
2019-02-04T15:24:33.131Z,9.27
2019-02-04T15:27:13.634Z,8.33
2019-02-04T15:29:54.165Z,8.13
2019-02-04T15:32:45.654Z,8.73
2019-02-04T15:35:35.308Z,7.90
2019-02-04T15:38:12.749Z,8.10
2019-02-04T15:41:18.051Z,8.83
2019-02-04T15:43:49.827Z,7.57
2019-02-04T15:46:36.714Z,10.07
2019-02-04T15:49:28.166Z,7.40
2019-02-04T15:51:56.907Z,8.30
2019-02-04T15:54:25.492Z,7.57
2019-02-04T15:56:54.067Z,8.30
2019-02-04T15:59:22.780Z,9.13
2019-02-04T16:01:51.347Z,8.97
2019-02-04T16:04:28.140Z,9.93
2019-02-04T16:06:56.755Z,8.77
2019-02-04T16:09:25.412Z,8.27
2019-02-04T16:11:53.980Z,8.90
2019-02-04T16:14:22.487Z,10.23
2019-02-04T16:16:51.388Z,8.83
2019-02-04T16:19:20.022Z,7.20
2019-02-04T16:21:48.602Z,8.13
2019-02-04T16:24:17.171Z,9.47
2019-02-04T16:26:45.804Z,7.43
2019-02-04T16:29:14.315Z,7.83
2019-02-04T16:31:43.186Z,9.07
2019-02-04T16:34:11.812Z,8.67
2019-02-04T16:36:40.396Z,8.23
2019-02-04T16:39:10.076Z,8.63
2019-02-04T16:41:38.790Z,8.37
2019-02-04T16:44:07.596Z,8.83
2019-02-04T16:46:36.164Z,9.63
2019-02-04T16:49:04.868Z,8.50
2019-02-04T16:51:33.523Z,8.97
2019-02-04T16:54:02.058Z,9.03
2019-02-04T16:56:30.708Z,9.50
2019-02-04T16:58:59.300Z,8.50
2019-02-04T17:01:27.731Z,10.13
2019-02-04T17:03:56.683Z,9.20
2019-02-04T17:06:25.284Z,9.23
2019-02-04T17:08:53.868Z,8.90
2019-02-04T17:11:22.500Z,9.97
2019-02-04T17:13:51.011Z,9.57
2019-02-04T17:16:19.500Z,7.93
2019-02-04T17:18:48.222Z,8.53
2019-02-04T17:21:16.645Z,8.77
2019-02-04T17:23:45.275Z,10.17
2019-02-04T17:26:13.926Z,8.63
2019-02-04T17:28:42.429Z,8.90
2019-02-04T17:31:11.084Z,9.63
2019-02-04T17:33:39.698Z,9.13
2019-02-04T17:36:08.324Z,9.73
2019-02-04T17:38:36.919Z,10.53
2019-02-04T17:41:05.644Z,10.20
2019-02-04T17:43:34.211Z,9.57
2019-02-04T17:46:02.821Z,10.03
2019-02-04T17:48:31.539Z,8.97
2019-02-04T17:51:00.331Z,9.33
2019-02-04T17:53:34.241Z,9.17
2019-02-04T17:55:58.996Z,9.77
2019-02-04T17:58:27.496Z,10.77
2019-02-04T18:00:56.052Z,9.23
2019-02-04T18:03:24.698Z,9.37
2019-02-04T18:05:53.938Z,10.30
2019-02-04T18:08:22.460Z,10.50
2019-02-04T18:10:51.099Z,9.67
2019-02-04T18:13:19.684Z,9.70
2019-02-04T18:15:48.307Z,10.40
2019-02-04T18:18:16.988Z,7.97
2019-02-04T18:20:45.515Z,10.87
2019-02-04T18:23:14.174Z,10.83
2019-02-04T18:25:42.863Z,10.07
2019-02-04T18:28:11.460Z,8.90
2019-02-04T18:30:40.042Z,9.80
2019-02-04T18:33:08.676Z,9.53
2019-02-04T18:35:37.548Z,9.93
2019-02-04T18:38:06.211Z,8.30
2019-02-04T18:40:34.940Z,10.43
2019-02-04T18:43:03.524Z,9.53
2019-02-04T18:45:33.531Z,9.10
2019-02-04T18:48:02.262Z,9.70
2019-02-04T18:50:31.298Z,10.10
2019-02-04T18:52:59.979Z,10.07
2019-02-04T18:55:30.812Z,10.93
2019-02-04T18:57:59.477Z,8.93
2019-02-04T19:00:33.538Z,9.57
2019-02-04T19:03:03.391Z,10.40
2019-02-04T19:05:32.036Z,9.00
2019-02-04T19:08:00.532Z,8.50
2019-02-04T19:10:29.274Z,9.00
2019-02-04T19:12:57.900Z,9.03
2019-02-04T19:15:28.076Z,9.20
2019-02-04T19:18:00.043Z,8.70
2019-02-04T19:20:28.707Z,8.60
2019-02-04T19:22:57.379Z,8.80
2019-02-04T19:25:25.987Z,10.10
2019-02-04T19:27:54.633Z,9.60
2019-02-04T19:30:28.716Z,8.60
2019-02-04T19:32:57.772Z,9.57
2019-02-04T19:35:26.275Z,9.97
2019-02-04T19:37:54.860Z,9.70
2019-02-04T19:40:23.443Z,10.13
2019-02-04T19:42:52.098Z,8.67
2019-02-04T19:45:21.940Z,9.13
2019-02-04T19:47:50.716Z,7.47
2019-02-04T19:50:33.396Z,10.03
2019-02-04T19:53:02.067Z,8.70
2019-02-04T19:55:30.750Z,7.87
2019-02-04T19:57:59.390Z,8.93
2019-02-04T20:00:28.521Z,8.40
2019-02-04T20:02:57.107Z,8.50
2019-02-04T20:05:30.489Z,7.03
2019-02-04T20:07:59.125Z,8.40
2019-02-04T20:10:33.063Z,8.90
2019-02-04T20:13:01.795Z,8.47
2019-02-04T20:15:31.510Z,7.67
2019-02-04T20:18:00.084Z,8.43
2019-02-04T20:20:28.742Z,7.97
2019-02-04T20:22:57.387Z,7.07
2019-02-04T20:25:27.983Z,8.77
2019-02-04T20:27:56.645Z,7.97
2019-02-04T20:30:31.520Z,7.37
2019-02-04T20:33:00.098Z,6.90
2019-02-04T20:35:28.677Z,7.13
2019-02-04T20:37:57.397Z,6.63
2019-02-04T20:40:27.123Z,6.83
2019-02-04T20:42:55.698Z,7.27
2019-02-04T20:45:25.292Z,6.90
2019-02-04T20:47:53.875Z,8.07
2019-02-04T20:50:37.484Z,6.60
2019-02-04T20:53:06.131Z,6.47
2019-02-04T20:55:34.724Z,6.27
2019-02-04T20:58:03.398Z,6.10
2019-02-04T21:00:32.859Z,5.87
2019-02-04T21:03:02.049Z,6.33
2019-02-04T21:05:30.820Z,6.10
2019-02-04T21:07:59.456Z,5.47
2019-02-04T21:10:29.133Z,5.83
2019-02-04T21:12:58.293Z,6.43
2019-02-04T21:15:26.950Z,5.47
2019-02-04T21:17:55.445Z,5.67
2019-02-04T21:20:30.091Z,5.60
2019-02-04T21:22:58.732Z,6.03
2019-02-04T21:25:27.300Z,5.37
2019-02-04T21:27:55.892Z,4.93
2019-02-04T21:30:30.626Z,5.77
2019-02-04T21:32:59.276Z,5.60
2019-02-04T21:35:27.924Z,5.73
2019-02-04T21:37:56.564Z,5.47
2019-02-04T21:40:25.226Z,4.90
2019-02-04T21:42:53.955Z,5.23
2019-02-04T21:45:26.443Z,5.57
2019-02-04T21:47:55.035Z,6.23
2019-02-04T21:50:25.354Z,5.10
2019-02-04T21:52:53.925Z,5.87
2019-02-04T21:55:23.236Z,5.07
2019-02-04T21:57:51.940Z,5.43
2019-02-04T22:00:26.177Z,4.93
2019-02-04T22:02:54.760Z,5.07
2019-02-04T22:05:25.764Z,6.73
2019-02-04T22:07:54.427Z,5.77
2019-02-04T22:10:25.638Z,6.47
2019-02-04T22:12:54.249Z,6.10
2019-02-04T22:15:22.812Z,5.67
2019-02-04T22:17:51.468Z,6.37
2019-02-04T22:20:20.763Z,5.70
2019-02-04T22:22:49.267Z,6.00
2019-02-04T22:25:23.484Z,5.07
2019-02-04T22:27:52.044Z,5.67
2019-02-04T22:30:26.262Z,5.50
2019-02-04T22:32:54.834Z,4.87
2019-02-04T22:35:23.580Z,5.97
2019-02-04T22:37:52.084Z,5.60
2019-02-04T22:40:22.853Z,6.17
2019-02-04T22:42:51.506Z,6.03
2019-02-04T22:45:20.092Z,6.43
2019-02-04T22:47:48.668Z,5.27
2019-02-04T22:50:20.432Z,4.27
2019-02-04T22:52:49.050Z,6.17
2019-02-04T22:55:17.972Z,4.77
2019-02-04T22:57:46.669Z,6.83
2019-02-04T23:00:44.237Z,5.53
2019-02-04T23:03:13.875Z,4.97
2019-02-04T23:05:42.427Z,5.83
2019-02-04T23:08:10.948Z,6.30
2019-02-04T23:10:39.577Z,6.13
2019-02-04T23:13:08.162Z,7.57
2019-02-04T23:15:36.676Z,4.80
2019-02-04T23:18:05.788Z,6.53
2019-02-04T23:20:34.411Z,5.93
2019-02-04T23:23:02.993Z,7.07
2019-02-04T23:25:42.670Z,6.10
2019-02-04T23:28:01.891Z,5.20
2019-02-04T23:30:30.484Z,5.40
2019-02-04T23:32:59.163Z,6.10
2019-02-04T23:35:27.757Z,6.23
2019-02-04T23:37:56.281Z,5.47
2019-02-04T23:40:24.898Z,6.60
2019-02-04T23:42:53.565Z,6.13
2019-02-04T23:45:22.230Z,5.47
2019-02-04T23:47:50.876Z,6.77
2019-02-04T23:50:19.738Z,5.37
2019-02-04T23:52:48.251Z,5.60
2019-02-04T23:55:16.868Z,5.70
2019-02-04T23:57:45.531Z,5.37
